createdAt,value
2023-02-03T00:00:50.332Z,98633.75
2023-02-03T00:03:52.842Z,98632.00
2023-02-03T00:06:55.512Z,98646.72
2023-02-03T00:09:58.159Z,98656.31
2023-02-03T00:13:01.830Z,98647.69
2023-02-03T00:16:06.800Z,98648.63
2023-02-03T00:19:11.367Z,98654.94
2023-02-03T00:22:13.910Z,98658.59
2023-02-03T00:25:16.981Z,98660.34
2023-02-03T00:28:19.516Z,98666.66
2023-02-03T00:31:25.208Z,98668.22
2023-02-03T00:34:31.539Z,98671.88
2023-02-03T00:37:34.079Z,98674.53
2023-02-03T00:40:36.852Z,98684.97
2023-02-03T00:43:39.408Z,98686.66
2023-02-03T00:46:43.723Z,98692.75
2023-02-03T00:49:46.297Z,98698.91
2023-02-03T00:52:48.983Z,98702.63
2023-02-03T00:55:52.264Z,98693.22
2023-02-03T00:58:55.454Z,98689.09
2023-02-03T01:01:58.174Z,98688.56
2023-02-03T01:05:01.735Z,98696.28
2023-02-03T01:08:04.563Z,98704.09
2023-02-03T01:11:09.883Z,98687.66
2023-02-03T01:14:12.420Z,98701.63
2023-02-03T01:17:14.921Z,98683.72
2023-02-03T01:20:17.697Z,98705.13
2023-02-03T01:23:20.148Z,98690.50
2023-02-03T01:26:24.679Z,98688.78
2023-02-03T01:29:27.200Z,98698.28
2023-02-03T01:32:33.376Z,98704.34
2023-02-03T01:35:36.720Z,98701.97
2023-02-03T01:38:41.212Z,98700.63
2023-02-03T01:41:43.830Z,98694.22
2023-02-03T01:44:53.323Z,98695.81
2023-02-03T01:47:58.705Z,98693.44
2023-02-03T01:51:03.026Z,98699.53
2023-02-03T01:54:08.042Z,98690.19
2023-02-03T01:57:31.969Z,98681.72
2023-02-03T02:00:34.683Z,98682.41
2023-02-03T02:03:43.090Z,98686.75
2023-02-03T02:06:48.312Z,98688.41
2023-02-03T02:09:52.566Z,98693.81
2023-02-03T02:12:59.382Z,98690.47
2023-02-03T02:16:11.004Z,98694.00
2023-02-03T02:19:33.100Z,98686.50
2023-02-03T02:23:00.943Z,98685.44
2023-02-03T02:26:49.486Z,98681.47
2023-02-03T02:30:05.816Z,98670.63
2023-02-03T02:33:19.670Z,98676.88
2023-02-03T02:36:58.953Z,98679.78
2023-02-03T02:40:33.005Z,98672.00
2023-02-03T02:43:47.180Z,98683.44
2023-02-03T02:46:54.052Z,98676.53
2023-02-03T02:50:12.583Z,98679.91
2023-02-03T02:53:18.208Z,98682.53
2023-02-03T02:56:22.317Z,98671.78
2023-02-03T02:59:28.197Z,98675.28
2023-02-03T03:02:35.408Z,98671.13
2023-02-03T03:05:41.690Z,98668.16
2023-02-03T03:08:59.189Z,98683.13
2023-02-03T03:12:13.746Z,98669.41
2023-02-03T03:15:25.472Z,98662.56
2023-02-03T03:18:37.110Z,98657.19
2023-02-03T03:21:45.776Z,98658.63
2023-02-03T03:24:53.054Z,98645.00
2023-02-03T03:28:01.151Z,98639.78
2023-02-03T03:31:06.000Z,98640.59
2023-02-03T03:34:10.474Z,98633.56
2023-02-03T03:37:21.433Z,98631.78
2023-02-03T03:40:43.576Z,98643.75
2023-02-03T03:43:49.554Z,98649.41
2023-02-03T03:47:05.734Z,98638.34
2023-02-03T03:50:15.411Z,98652.25
2023-02-03T03:53:24.953Z,98666.69
2023-02-03T03:56:38.048Z,98659.56
2023-02-03T03:59:43.327Z,98670.00
2023-02-03T04:02:52.147Z,98667.28
2023-02-03T04:05:56.348Z,98674.44
2023-02-03T04:09:07.228Z,98676.78
2023-02-03T04:12:25.845Z,98659.09
2023-02-03T04:15:32.831Z,98660.44
2023-02-03T04:18:36.400Z,98656.06
2023-02-03T04:21:39.921Z,98649.25
2023-02-03T04:24:44.093Z,98654.16
2023-02-03T04:27:47.714Z,98647.00
2023-02-03T04:30:51.408Z,98651.72
2023-02-03T04:33:58.443Z,98634.28
2023-02-03T04:37:01.757Z,98631.84
2023-02-03T04:40:06.433Z,98636.75
2023-02-03T04:43:10.299Z,98623.56
2023-02-03T04:46:15.180Z,98621.03
2023-02-03T04:49:18.792Z,98620.75
2023-02-03T04:52:23.903Z,98628.50
2023-02-03T04:55:32.885Z,98620.09
2023-02-03T04:58:37.257Z,98615.66
2023-02-03T05:01:41.773Z,98618.06
2023-02-03T05:04:45.048Z,98618.19
2023-02-03T05:07:48.875Z,98616.38
2023-02-03T05:10:52.491Z,98614.69
2023-02-03T05:13:59.530Z,98615.81
2023-02-03T05:17:04.764Z,98616.66
2023-02-03T05:20:09.399Z,98607.63
2023-02-03T05:23:14.935Z,98608.09
2023-02-03T05:26:18.343Z,98609.84
2023-02-03T05:29:23.178Z,98600.63
2023-02-03T05:32:28.796Z,98612.50
2023-02-03T05:35:32.612Z,98606.44
2023-02-03T05:38:40.598Z,98602.91
2023-02-03T05:41:53.178Z,98596.78
2023-02-03T05:44:59.503Z,98596.63
2023-02-03T05:48:06.227Z,98584.22
2023-02-03T05:51:10.626Z,98573.91
2023-02-03T05:54:18.685Z,98575.91
2023-02-03T05:57:26.148Z,98573.06
2023-02-03T06:00:35.523Z,98579.81
2023-02-03T06:03:42.006Z,98576.66
2023-02-03T06:06:50.710Z,98574.47
2023-02-03T06:09:54.674Z,98579.19
2023-02-03T06:12:59.228Z,98578.34
2023-02-03T06:16:07.325Z,98572.94
2023-02-03T06:19:16.301Z,98574.84
2023-02-03T06:22:20.917Z,98574.56
2023-02-03T06:25:37.126Z,98581.34
2023-02-03T06:28:44.183Z,98574.03
2023-02-03T06:31:50.371Z,98568.88
2023-02-03T06:34:55.871Z,98560.31
2023-02-03T06:38:00.389Z,98571.69
2023-02-03T06:41:04.131Z,98547.53
2023-02-03T06:44:08.584Z,98548.50
2023-02-03T06:47:12.358Z,98547.63
2023-02-03T06:50:16.909Z,98545.59
2023-02-03T06:53:20.903Z,98552.94
2023-02-03T06:56:29.064Z,98541.22
2023-02-03T06:59:36.494Z,98539.28
2023-02-03T07:02:42.053Z,98548.47
2023-02-03T07:05:45.579Z,98560.78
2023-02-03T07:08:53.421Z,98551.09
2023-02-03T07:11:58.567Z,98553.41
2023-02-03T07:15:08.220Z,98551.88
2023-02-03T07:18:11.889Z,98541.16
2023-02-03T07:21:19.855Z,98547.84
2023-02-03T07:24:26.806Z,98549.78
2023-02-03T07:27:34.471Z,98544.19
2023-02-03T07:30:38.084Z,98531.56
2023-02-03T07:33:45.768Z,98535.41
2023-02-03T07:37:00.312Z,98540.72
2023-02-03T07:40:03.959Z,98534.22
2023-02-03T07:43:13.394Z,98525.78
2023-02-03T07:46:24.876Z,98519.53
2023-02-03T07:49:29.876Z,98526.16
2023-02-03T07:52:37.266Z,98521.66
2023-02-03T07:55:41.600Z,98521.53
2023-02-03T07:58:48.647Z,98521.69
2023-02-03T08:01:57.103Z,98518.06
2023-02-03T08:05:06.264Z,98521.84
2023-02-03T08:08:17.263Z,98522.13
2023-02-03T08:11:21.007Z,98510.56
2023-02-03T08:14:25.383Z,98497.22
2023-02-03T08:17:29.965Z,98488.41
2023-02-03T08:20:33.654Z,98492.19
2023-02-03T08:23:39.642Z,98492.53
2023-02-03T08:26:48.808Z,98483.16
2023-02-03T08:29:55.666Z,98473.31
2023-02-03T08:33:06.592Z,98483.25
2023-02-03T08:39:36.107Z,98464.16
2023-02-03T08:42:45.650Z,98464.53
2023-02-03T08:45:52.667Z,98456.16
2023-02-03T08:49:01.540Z,98449.56
2023-02-03T08:52:05.070Z,98447.72
2023-02-03T08:55:18.950Z,98448.78
2023-02-03T08:58:25.512Z,98451.91
2023-02-03T09:01:32.083Z,98448.38
2023-02-03T09:04:41.144Z,98445.25
2023-02-03T09:07:45.459Z,98437.06
2023-02-03T09:10:52.729Z,98440.47
2023-02-03T09:14:00.937Z,98437.00
2023-02-03T09:17:11.521Z,98432.34
2023-02-03T09:20:16.467Z,98424.59
2023-02-03T09:23:20.013Z,98427.78
2023-02-03T09:26:23.572Z,98420.75
2023-02-03T09:29:30.158Z,98419.13
2023-02-03T09:32:36.404Z,98413.38
2023-02-03T09:35:41.039Z,98412.59
2023-02-03T09:38:48.900Z,98405.41
2023-02-03T09:42:42.439Z,98388.00
2023-02-03T09:45:49.712Z,98384.94
2023-02-03T09:49:10.580Z,98382.84
2023-02-03T09:52:45.791Z,98376.19
2023-02-03T09:55:55.299Z,98368.38
2023-02-03T09:59:13.951Z,98364.81
2023-02-03T10:02:26.535Z,98349.03
2023-02-03T10:06:06.114Z,98339.84
2023-02-03T10:09:34.297Z,98353.78
2023-02-03T10:12:38.168Z,98342.25
2023-02-03T10:16:06.046Z,98337.00
2023-02-03T10:19:18.552Z,98335.34
2023-02-03T10:22:30.960Z,98341.78
2023-02-03T10:25:57.524Z,98329.56
2023-02-03T10:29:22.356Z,98328.47
2023-02-03T10:32:32.302Z,98323.28
2023-02-03T10:36:06.108Z,98307.81
2023-02-03T10:39:20.947Z,98300.19
2023-02-03T10:42:25.350Z,98295.84
2023-02-03T10:45:32.576Z,98290.38
2023-02-03T10:48:37.888Z,98275.88
2023-02-03T10:51:54.756Z,98281.63
2023-02-03T10:54:59.948Z,98262.44
2023-02-03T10:58:25.693Z,98260.59
2023-02-03T11:01:42.420Z,98247.88
2023-02-03T11:04:45.763Z,98244.59
2023-02-03T11:07:49.467Z,98239.16
2023-02-03T11:11:03.263Z,98218.63
2023-02-03T11:14:06.909Z,98216.38
2023-02-03T11:17:20.420Z,98213.50
2023-02-03T11:20:29.474Z,98188.19
2023-02-03T11:23:33.698Z,98194.78
2023-02-03T11:26:42.532Z,98191.91
2023-02-03T11:29:50.074Z,98180.13
2023-02-03T11:32:56.128Z,98167.03
2023-02-03T11:36:00.694Z,98167.97
2023-02-03T11:39:24.284Z,98155.78
2023-02-03T11:42:32.119Z,98137.53
2023-02-03T11:45:49.389Z,98129.13
2023-02-03T11:49:35.811Z,98112.06
2023-02-03T11:53:02.520Z,98113.63
2023-02-03T11:56:27.782Z,98094.31
2023-02-03T11:59:53.694Z,98093.97
2023-02-03T12:03:13.271Z,98088.13
2023-02-03T12:06:25.286Z,98075.13
2023-02-03T12:09:55.441Z,98073.88
2023-02-03T12:13:08.524Z,98069.84
2023-02-03T12:16:51.688Z,98045.00
2023-02-03T12:20:18.974Z,98031.38
2023-02-03T12:23:23.659Z,98033.44
2023-02-03T12:26:35.420Z,98028.97
2023-02-03T12:29:45.196Z,98001.56
2023-02-03T12:33:18.833Z,98000.91
2023-02-03T12:36:29.340Z,98009.38
2023-02-03T12:39:40.310Z,97991.25
2023-02-03T12:43:13.023Z,97984.22
2023-02-03T12:46:41.277Z,97976.75
2023-02-03T12:49:52.857Z,97964.09
2023-02-03T12:53:01.188Z,97954.63
2023-02-03T12:56:18.941Z,97940.91
2023-02-03T12:59:26.066Z,97933.44
2023-02-03T13:02:36.825Z,97915.31
2023-02-03T13:06:12.754Z,97908.59
2023-02-03T13:09:41.419Z,97905.28
2023-02-03T13:12:57.317Z,97895.81
2023-02-03T13:16:01.336Z,97894.28
2023-02-03T13:22:28.262Z,97877.81
2023-02-03T13:25:46.396Z,97879.91
2023-02-03T13:29:01.909Z,97860.34
2023-02-03T13:32:27.502Z,97855.13
2023-02-03T13:35:45.886Z,97863.97
2023-02-03T13:39:22.856Z,97848.75
2023-02-03T13:42:27.858Z,97833.59
2023-02-03T13:45:41.621Z,97823.13
2023-02-03T13:48:45.868Z,97826.47
2023-02-03T13:51:50.803Z,97808.91
2023-02-03T13:54:53.925Z,97808.41
2023-02-03T13:57:57.376Z,97791.28
2023-02-03T14:01:02.693Z,97773.50
2023-02-03T14:04:09.447Z,97772.69
2023-02-03T14:07:38.668Z,97758.75
2023-02-03T14:10:45.629Z,97761.06
2023-02-03T14:13:52.747Z,97740.41
2023-02-03T14:16:56.531Z,97762.34
2023-02-03T14:20:00.389Z,97734.34
2023-02-03T14:23:09.064Z,97730.63
2023-02-03T14:26:20.284Z,97725.66
2023-02-03T14:29:32.878Z,97723.44
2023-02-03T14:33:00.760Z,97722.72
2023-02-03T14:36:26.720Z,97714.25
2023-02-03T14:39:58.583Z,97712.94
2023-02-03T14:43:44.554Z,97691.72
2023-02-03T14:47:02.530Z,97693.66
2023-02-03T14:50:07.270Z,97691.94
2023-02-03T14:53:28.479Z,97695.34
2023-02-03T14:57:12.438Z,97691.59
2023-02-03T15:00:26.843Z,97687.78
2023-02-03T15:03:31.456Z,97682.44
2023-02-03T15:06:48.582Z,97675.66
